createdAt,value
2023-03-28T00:01:02.096Z,99.90
2023-03-28T00:03:29.597Z,99.90
2023-03-28T00:06:00.926Z,99.90
2023-03-28T00:08:28.697Z,99.90
2023-03-28T00:11:18.784Z,99.90
2023-03-28T00:13:47.768Z,99.90
2023-03-28T00:16:14.774Z,99.90
2023-03-28T00:18:42.833Z,99.90
2023-03-28T00:21:27.252Z,99.90
2023-03-28T00:23:56.089Z,99.90
2023-03-28T00:26:25.255Z,99.90
2023-03-28T00:28:52.327Z,99.90
2023-03-28T00:31:19.473Z,99.90
2023-03-28T00:33:47.745Z,99.90
2023-03-28T00:36:18.528Z,99.90
2023-03-28T00:38:48.591Z,99.90
2023-03-28T00:41:16.095Z,99.90
2023-03-28T00:43:47.532Z,99.90
2023-03-28T00:46:17.690Z,99.90
2023-03-28T00:48:51.347Z,99.90
2023-03-28T00:51:20.955Z,99.90
2023-03-28T00:53:48.124Z,99.90
2023-03-28T00:56:19.096Z,99.90
2023-03-28T00:58:47.894Z,99.90
2023-03-28T01:01:17.822Z,99.90
2023-03-28T01:03:49.060Z,99.90
2023-03-28T01:06:16.599Z,99.90
2023-03-28T01:08:47.152Z,99.90
2023-03-28T01:11:15.626Z,99.90
2023-03-28T01:13:47.861Z,99.90
2023-03-28T01:16:15.995Z,99.90
2023-03-28T01:18:47.001Z,99.90
2023-03-28T01:21:42.399Z,99.90
2023-03-28T01:24:32.006Z,99.90
2023-03-28T01:27:17.706Z,99.90
2023-03-28T01:30:01.734Z,99.90
2023-03-28T01:32:59.370Z,99.90
2023-03-28T01:35:29.569Z,99.90
2023-03-28T01:38:12.533Z,99.90
2023-03-28T01:40:47.240Z,99.90
2023-03-28T01:43:23.993Z,99.90
2023-03-28T01:46:06.406Z,99.90
2023-03-28T01:48:55.837Z,99.90
2023-03-28T01:51:42.452Z,99.90
2023-03-28T01:54:30.241Z,99.90
2023-03-28T01:57:05.903Z,99.90
2023-03-28T01:59:50.307Z,99.90
2023-03-28T02:02:22.497Z,99.90
2023-03-28T02:04:51.228Z,99.90
2023-03-28T02:07:21.796Z,99.90
2023-03-28T02:09:51.993Z,99.90
2023-03-28T02:12:26.007Z,99.90
2023-03-28T02:14:56.390Z,99.90
2023-03-28T02:17:26.397Z,99.90
2023-03-28T02:19:59.278Z,99.90
2023-03-28T02:22:38.440Z,99.90
2023-03-28T02:25:05.957Z,99.90
2023-03-28T02:27:34.864Z,99.90
2023-03-28T02:30:01.770Z,99.90
2023-03-28T02:32:34.057Z,99.90
2023-03-28T02:35:02.925Z,99.90
2023-03-28T02:37:46.305Z,99.90
2023-03-28T02:40:40.507Z,99.90
2023-03-28T02:43:27.888Z,99.90
2023-03-28T02:46:03.709Z,99.90
2023-03-28T02:48:56.567Z,99.90
2023-03-28T02:51:35.280Z,99.90
2023-03-28T02:54:09.443Z,99.90
2023-03-28T02:56:37.539Z,99.90
2023-03-28T02:59:15.171Z,99.90
2023-03-28T04:00:34.805Z,99.90
2023-03-28T04:03:01.613Z,99.90
2023-03-28T04:05:28.413Z,99.90
2023-03-28T04:07:57.580Z,99.90
2023-03-28T04:10:24.743Z,99.90
2023-03-28T04:12:51.594Z,99.90
2023-03-28T04:15:18.477Z,99.90
2023-03-28T04:17:46.870Z,99.90
2023-03-28T04:20:13.989Z,99.90
2023-03-28T04:22:45.172Z,99.90
2023-03-28T04:25:14.052Z,99.90
2023-03-28T04:27:47.010Z,99.90
2023-03-28T04:30:17.659Z,99.90
2023-03-28T04:32:44.865Z,99.90
2023-03-28T04:35:12.373Z,99.90
2023-03-28T04:37:39.151Z,99.90
2023-03-28T04:40:10.624Z,99.90
2023-03-28T04:42:38.793Z,99.90
2023-03-28T04:45:08.404Z,99.90
2023-03-28T04:47:37.690Z,99.90
2023-03-28T04:50:04.888Z,99.90
2023-03-28T04:52:31.679Z,99.90
2023-03-28T04:54:58.545Z,99.90
2023-03-28T04:57:25.686Z,99.90
2023-03-28T04:59:52.513Z,99.90
2023-03-28T05:02:19.303Z,99.90
2023-03-28T05:04:46.271Z,99.90
2023-03-28T05:07:13.129Z,99.90
2023-03-28T05:09:40.049Z,99.90
2023-03-28T05:12:07.500Z,99.90
2023-03-28T05:14:37.186Z,99.90
2023-03-28T05:17:03.975Z,99.90
2023-03-28T05:19:31.173Z,99.90
2023-03-28T05:21:57.883Z,99.90
2023-03-28T05:24:24.681Z,99.90
2023-03-28T05:26:51.502Z,99.90
2023-03-28T05:29:18.310Z,99.90
2023-03-28T05:31:45.024Z,99.90
2023-03-28T05:34:11.865Z,99.90
2023-03-28T05:36:38.644Z,99.90
2023-03-28T05:39:05.384Z,99.90
2023-03-28T05:41:32.149Z,99.90
2023-03-28T05:43:58.927Z,99.90
2023-03-28T05:46:25.975Z,99.90
2023-03-28T05:48:52.796Z,99.90
2023-03-28T05:51:19.616Z,99.90
2023-03-28T05:53:46.510Z,99.90
2023-03-28T05:56:14.387Z,99.90
2023-03-28T05:58:41.675Z,99.90
2023-03-28T06:01:09.614Z,99.90
2023-03-28T06:03:39.971Z,99.90
2023-03-28T06:06:07.409Z,99.90
2023-03-28T06:08:34.237Z,99.90
2023-03-28T06:11:02.555Z,99.90
2023-03-28T06:13:30.468Z,99.90
2023-03-28T06:15:57.258Z,99.90
2023-03-28T06:18:24.020Z,99.90
2023-03-28T06:20:51.158Z,99.90
2023-03-28T06:23:18.123Z,99.90
2023-03-28T06:25:45.082Z,99.90
2023-03-28T06:28:12.183Z,99.90
2023-03-28T06:30:40.197Z,99.90
2023-03-28T06:33:07.648Z,99.90
2023-03-28T06:35:35.200Z,99.90
2023-03-28T06:38:02.112Z,99.90
2023-03-28T06:40:28.999Z,99.90
2023-03-28T06:42:55.906Z,99.90
2023-03-28T06:45:23.061Z,99.90
2023-03-28T06:47:51.692Z,99.90
2023-03-28T06:50:18.592Z,99.90
2023-03-28T06:52:45.770Z,99.90
2023-03-28T06:55:12.648Z,99.90
2023-03-28T06:57:39.506Z,99.90
2023-03-28T07:00:10.036Z,99.90
2023-03-28T07:02:36.890Z,99.90
2023-03-28T07:05:03.894Z,99.90
2023-03-28T07:07:31.590Z,99.90
2023-03-28T07:09:58.392Z,99.90
2023-03-28T07:12:26.302Z,99.90
2023-03-28T07:14:53.075Z,99.90
2023-03-28T07:17:20.699Z,99.90
2023-03-28T07:19:51.153Z,99.90
2023-03-28T07:22:18.069Z,99.90
2023-03-28T07:24:45.226Z,99.90
2023-03-28T07:27:16.116Z,99.90
2023-03-28T07:29:43.907Z,99.90
2023-03-28T07:32:11.230Z,99.90
2023-03-28T07:34:38.188Z,99.90
2023-03-28T07:37:05.456Z,99.90
2023-03-28T07:39:32.654Z,99.90
2023-03-28T07:41:59.480Z,99.90
2023-03-28T07:44:26.366Z,99.90
2023-03-28T07:46:54.753Z,99.90
2023-03-28T07:49:21.685Z,99.90
2023-03-28T07:51:48.533Z,99.90
2023-03-28T07:54:17.948Z,99.90
2023-03-28T07:56:46.555Z,99.90
2023-03-28T07:59:15.312Z,99.90
2023-03-28T08:01:43.468Z,99.90
2023-03-28T08:04:13.043Z,99.90
2023-03-28T08:06:40.986Z,99.90
2023-03-28T08:09:10.668Z,99.90
2023-03-28T08:11:38.898Z,99.90
2023-03-28T08:16:33.811Z,99.90
2023-03-28T08:19:10.681Z,99.90
2023-03-28T08:21:38.777Z,99.90
2023-03-28T08:24:07.751Z,99.90
2023-03-28T08:26:35.034Z,99.90
2023-03-28T08:29:02.304Z,99.90
2023-03-28T08:31:29.928Z,99.90
2023-03-28T08:33:57.719Z,99.90
2023-03-28T08:36:27.227Z,99.90
2023-03-28T08:39:00.461Z,99.90
2023-03-28T08:41:47.268Z,99.90
2023-03-28T08:44:21.797Z,99.90
2023-03-28T08:46:54.496Z,99.90
2023-03-28T08:49:21.419Z,99.90
2023-03-28T08:51:56.712Z,99.90
2023-03-28T08:54:27.686Z,99.90
2023-03-28T08:56:58.002Z,99.90
2023-03-28T08:59:49.784Z,99.90
2023-03-28T09:02:21.674Z,99.40
2023-03-28T09:04:49.595Z,98.70
2023-03-28T09:07:26.621Z,95.40
2023-03-28T09:10:14.972Z,95.60
2023-03-28T09:13:04.375Z,98.10
2023-03-28T09:16:15.296Z,97.90
2023-03-28T09:18:56.898Z,93.90
2023-03-28T09:21:45.876Z,92.30
2023-03-28T09:24:28.910Z,91.50
2023-03-28T09:27:13.083Z,93.30
2023-03-28T09:29:43.120Z,92.80
2023-03-28T09:32:21.296Z,94.70
2023-03-28T09:34:51.236Z,96.40
2023-03-28T09:37:30.465Z,97.10
2023-03-28T09:40:11.910Z,95.50
2023-03-28T09:43:01.286Z,94.20
2023-03-28T09:45:54.318Z,93.80
2023-03-28T09:48:25.213Z,94.20
2023-03-28T09:50:52.896Z,95.10
2023-03-28T09:53:25.132Z,95.80
2023-03-28T09:56:03.881Z,96.60
2023-03-28T09:58:50.517Z,96.90
2023-03-28T10:01:37.717Z,92.80
2023-03-28T10:04:11.794Z,91.30
2023-03-28T10:06:40.572Z,93.00
2023-03-28T10:09:13.535Z,90.10
2023-03-28T10:11:54.490Z,87.60
2023-03-28T10:14:42.372Z,83.10
2023-03-28T10:17:18.326Z,89.10
2023-03-28T10:19:47.149Z,81.30
2023-03-28T10:22:24.362Z,85.00
2023-03-28T10:24:51.787Z,83.70
2023-03-28T10:27:25.351Z,83.80
2023-03-28T10:29:55.960Z,85.20
2023-03-28T10:32:28.981Z,85.40
2023-03-28T10:35:17.308Z,79.40
2023-03-28T10:37:48.712Z,76.90
2023-03-28T10:40:19.161Z,73.20
2023-03-28T10:42:49.861Z,74.00
2023-03-28T10:45:24.592Z,75.10
2023-03-28T10:47:57.031Z,75.40
2023-03-28T10:50:37.000Z,75.30
2023-03-28T10:53:15.263Z,80.30
2023-03-28T10:56:14.206Z,78.20
2023-03-28T10:58:53.705Z,75.60
2023-03-28T11:01:25.144Z,77.70
2023-03-28T11:03:59.934Z,75.30
2023-03-28T11:06:45.980Z,69.90
2023-03-28T11:09:15.151Z,75.50
2023-03-28T11:11:46.001Z,76.10
2023-03-28T11:14:43.750Z,76.80
2023-03-28T11:17:22.203Z,78.50
2023-03-28T11:20:17.307Z,77.30
2023-03-28T11:23:05.687Z,77.80
2023-03-28T11:25:57.197Z,86.00
2023-03-28T11:28:51.766Z,75.50
2023-03-28T11:31:36.767Z,75.00
2023-03-28T11:36:55.706Z,66.10
2023-03-28T11:39:26.683Z,67.60
2023-03-28T11:41:58.077Z,68.00
2023-03-28T11:44:33.792Z,72.90
2023-03-28T11:47:17.611Z,69.40
2023-03-28T11:49:51.180Z,71.70
2023-03-28T11:52:30.712Z,67.80
2023-03-28T11:55:06.278Z,72.20
2023-03-28T11:57:42.089Z,71.30
2023-03-28T12:03:09.437Z,64.10
2023-03-28T12:05:46.792Z,66.50
2023-03-28T12:08:31.177Z,65.90
2023-03-28T12:11:04.739Z,64.60
2023-03-28T12:13:51.003Z,61.60
2023-03-28T12:16:29.002Z,62.80
2023-03-28T12:19:01.421Z,66.10
2023-03-28T12:21:35.860Z,59.00
2023-03-28T12:24:35.323Z,62.40
2023-03-28T12:27:07.766Z,63.70
2023-03-28T12:29:50.079Z,63.80
2023-03-28T12:32:42.286Z,65.80
2023-03-28T12:35:28.760Z,67.00
2023-03-28T12:38:21.185Z,66.90
2023-03-28T12:40:55.525Z,67.10
2023-03-28T12:43:28.910Z,64.40
2023-03-28T12:46:01.688Z,59.90
2023-03-28T12:48:42.156Z,59.40
2023-03-28T12:51:29.145Z,62.10
2023-03-28T12:54:26.958Z,63.90
2023-03-28T12:57:09.440Z,61.90
2023-03-28T12:59:39.751Z,63.90
2023-03-28T13:02:22.226Z,61.20
2023-03-28T13:05:12.968Z,66.10
2023-03-28T13:08:00.890Z,68.70
2023-03-28T13:10:32.762Z,69.50
2023-03-28T13:13:22.904Z,67.80
2023-03-28T13:16:01.333Z,67.20
2023-03-28T13:18:31.850Z,67.80
2023-03-28T13:21:01.541Z,66.10
2023-03-28T13:23:32.015Z,67.20
2023-03-28T13:26:02.834Z,67.10
2023-03-28T13:28:46.490Z,68.00
2023-03-28T13:31:28.719Z,65.90
2023-03-28T13:34:00.012Z,63.10
2023-03-28T13:36:32.403Z,65.40
2023-03-28T13:38:59.276Z,64.80
2023-03-28T13:41:36.036Z,62.20
2023-03-28T13:44:10.051Z,64.00
2023-03-28T13:46:39.343Z,66.00
2023-03-28T13:49:10.400Z,63.90
2023-03-28T13:51:56.168Z,65.60
2023-03-28T13:54:24.473Z,65.60
2023-03-28T13:56:53.139Z,63.90
2023-03-28T13:59:23.026Z,63.50
2023-03-28T14:01:55.534Z,63.70
2023-03-28T14:04:26.338Z,64.20
2023-03-28T14:06:54.395Z,61.90
2023-03-28T14:09:30.819Z,61.10
2023-03-28T14:12:08.870Z,63.60
2023-03-28T14:14:40.938Z,62.40
2023-03-28T14:17:20.105Z,62.60
2023-03-28T14:19:54.043Z,58.70
2023-03-28T14:22:25.505Z,58.30
2023-03-28T14:24:54.711Z,57.00
2023-03-28T14:27:39.521Z,58.00
2023-03-28T14:30:31.042Z,58.20
2023-03-28T14:33:01.095Z,56.90
2023-03-28T14:35:35.430Z,56.00
2023-03-28T14:38:07.278Z,56.70
2023-03-28T14:40:35.714Z,55.70
2023-03-28T14:43:06.232Z,56.40
2023-03-28T14:45:37.829Z,57.70
2023-03-28T14:48:08.847Z,56.80
2023-03-28T14:50:41.434Z,56.50
2023-03-28T14:53:17.764Z,57.80
2023-03-28T14:55:46.611Z,59.40
2023-03-28T14:58:14.004Z,59.20
2023-03-28T15:00:43.084Z,59.40
2023-03-28T15:03:16.680Z,60.90
2023-03-28T15:05:47.215Z,62.90
2023-03-28T15:08:26.712Z,62.80
2023-03-28T15:10:54.819Z,65.50
2023-03-28T15:13:31.025Z,67.50
2023-03-28T15:15:58.537Z,66.10
2023-03-28T15:18:30.503Z,67.90
2023-03-28T15:21:02.576Z,67.00
2023-03-28T15:23:38.301Z,67.50
2023-03-28T15:26:10.444Z,66.10
2023-03-28T15:28:37.889Z,68.60
2023-03-28T15:31:05.432Z,69.00
2023-03-28T15:33:34.635Z,69.50
2023-03-28T15:36:11.914Z,68.90
2023-03-28T15:38:40.834Z,68.90
2023-03-28T15:41:32.037Z,68.20
2023-03-28T15:45:07.810Z,67.10
2023-03-28T15:47:39.303Z,66.60
2023-03-28T15:50:10.010Z,68.30
2023-03-28T15:52:42.068Z,67.60
2023-03-28T15:55:12.806Z,68.90
2023-03-28T15:57:44.960Z,69.50
2023-03-28T16:00:36.590Z,69.50
2023-03-28T16:03:26.818Z,69.70
2023-03-28T16:06:09.790Z,71.20
2023-03-28T16:08:42.239Z,72.80
2023-03-28T16:11:16.506Z,72.50
2023-03-28T16:13:44.229Z,73.10
2023-03-28T16:16:19.145Z,73.10
2023-03-28T16:18:46.400Z,73.80
2023-03-28T16:21:13.439Z,73.40
2023-03-28T16:23:40.754Z,84.60
2023-03-28T16:26:08.222Z,73.70
2023-03-28T16:28:35.914Z,74.90
2023-03-28T16:31:04.000Z,75.10
2023-03-28T16:33:31.213Z,79.60
2023-03-28T16:35:59.554Z,80.80
2023-03-28T16:38:26.886Z,80.10
2023-03-28T16:40:53.716Z,82.10
2023-03-28T16:43:20.557Z,81.60
2023-03-28T16:45:49.628Z,82.00
2023-03-28T16:48:16.883Z,80.60
2023-03-28T16:50:53.163Z,80.30
2023-03-28T16:53:20.641Z,80.50
2023-03-28T16:55:48.545Z,83.30
2023-03-28T16:58:15.490Z,83.70
2023-03-28T17:00:42.299Z,84.40
2023-03-28T17:03:09.207Z,84.60
2023-03-28T17:05:37.561Z,85.10
2023-03-28T17:08:04.810Z,84.40
2023-03-28T17:10:31.750Z,84.90
2023-03-28T17:13:02.464Z,85.70
2023-03-28T17:15:32.202Z,87.00
2023-03-28T17:18:00.109Z,87.80
2023-03-28T17:20:27.529Z,87.30
2023-03-28T17:22:54.301Z,88.50
2023-03-28T17:25:21.212Z,88.60
2023-03-28T17:27:48.152Z,89.20
2023-03-28T17:30:15.124Z,89.40
2023-03-28T17:32:42.286Z,89.50
2023-03-28T17:35:09.921Z,90.10
2023-03-28T17:37:38.720Z,90.30
2023-03-28T17:40:06.985Z,91.40
2023-03-28T17:42:35.380Z,91.30
2023-03-28T17:45:02.522Z,90.70
2023-03-28T17:47:30.815Z,90.10
2023-03-28T17:50:00.451Z,90.30
2023-03-28T17:52:29.999Z,91.50
2023-03-28T17:54:58.897Z,90.00
2023-03-28T17:57:26.890Z,90.20
2023-03-28T17:59:54.614Z,90.50
2023-03-28T18:02:21.714Z,89.40
2023-03-28T18:04:48.881Z,90.30
2023-03-28T18:07:17.751Z,90.40
2023-03-28T18:09:45.202Z,90.40
2023-03-28T18:12:13.264Z,90.00
2023-03-28T18:14:40.658Z,90.30
2023-03-28T18:17:08.422Z,90.50
2023-03-28T18:19:35.745Z,90.20
2023-03-28T18:22:03.347Z,90.60
2023-03-28T18:24:30.586Z,90.70
2023-03-28T18:26:59.207Z,90.80
2023-03-28T18:29:26.336Z,90.50
2023-03-28T18:31:53.280Z,90.50
2023-03-28T18:34:20.654Z,90.60
2023-03-28T18:36:48.274Z,90.70
2023-03-28T18:39:15.514Z,90.40
2023-03-28T18:41:42.442Z,90.80
2023-03-28T18:44:10.720Z,90.70
2023-03-28T18:46:37.722Z,90.70
2023-03-28T18:49:04.995Z,91.00
2023-03-28T18:51:38.743Z,91.20
2023-03-28T18:54:06.627Z,91.00
2023-03-28T18:56:34.948Z,91.20
2023-03-28T18:59:02.662Z,89.90
2023-03-28T19:06:25.121Z,83.90
2023-03-28T19:08:52.464Z,84.20
2023-03-28T19:11:28.634Z,83.30
2023-03-28T19:13:56.034Z,82.70
2023-03-28T19:16:23.658Z,82.90
2023-03-28T19:18:50.925Z,82.20
2023-03-28T19:21:18.189Z,81.80
2023-03-28T19:23:49.063Z,82.30
2023-03-28T19:26:16.443Z,82.50
2023-03-28T19:28:43.357Z,82.50
2023-03-28T19:31:12.939Z,82.30
2023-03-28T19:33:41.044Z,82.50
2023-03-28T19:36:09.146Z,82.30
2023-03-28T19:39:13.653Z,82.90
2023-03-28T19:41:56.915Z,81.90
2023-03-28T19:44:24.421Z,81.00
2023-03-28T19:49:40.648Z,80.80
2023-03-28T19:52:12.107Z,80.50
2023-03-28T19:54:51.881Z,80.50
2023-03-28T19:57:23.508Z,81.10
2023-03-28T19:59:50.389Z,81.50
2023-03-28T20:02:17.485Z,81.40
2023-03-28T20:04:44.578Z,82.40
2023-03-28T20:07:12.899Z,82.40
2023-03-28T20:09:45.923Z,82.60
2023-03-28T20:12:12.903Z,82.50
2023-03-28T20:14:39.920Z,82.10
2023-03-28T20:17:07.032Z,82.50
2023-03-28T20:19:34.389Z,82.10
2023-03-28T20:22:01.821Z,82.00
2023-03-28T20:24:29.456Z,81.40
2023-03-28T20:26:57.125Z,82.50
2023-03-28T20:29:25.091Z,82.60
2023-03-28T20:31:53.199Z,82.60
2023-03-28T20:34:20.885Z,82.90
2023-03-28T20:36:49.609Z,83.00
2023-03-28T20:39:17.045Z,83.60
2023-03-28T20:41:45.805Z,83.70
2023-03-28T20:44:20.148Z,83.90
2023-03-28T20:46:48.916Z,83.90
2023-03-28T20:49:17.984Z,83.70
2023-03-28T20:51:44.833Z,85.10
2023-03-28T20:54:11.713Z,85.20
2023-03-28T20:56:38.700Z,83.70
2023-03-28T20:59:06.348Z,84.60
2023-03-28T21:01:39.693Z,84.30
2023-03-28T21:04:07.156Z,84.70
2023-03-28T21:06:38.075Z,85.80
2023-03-28T21:09:08.329Z,84.70
2023-03-28T21:11:38.440Z,85.20
2023-03-28T21:14:06.709Z,84.90
2023-03-28T21:16:33.983Z,84.90
2023-03-28T21:19:02.593Z,85.70
2023-03-28T21:21:30.338Z,86.70
2023-03-28T21:23:57.414Z,86.30
2023-03-28T21:26:24.703Z,86.60
2023-03-28T21:28:53.111Z,86.80
2023-03-28T21:31:24.921Z,87.00
2023-03-28T21:33:53.588Z,90.50
2023-03-28T21:36:21.675Z,91.40
2023-03-28T21:38:48.806Z,92.10
2023-03-28T21:41:16.675Z,92.10
2023-03-28T21:43:44.004Z,91.60
2023-03-28T21:46:12.144Z,91.80
2023-03-28T21:48:39.328Z,91.30
2023-03-28T21:51:07.116Z,91.50
2023-03-28T21:53:36.595Z,91.80
2023-03-28T21:56:05.240Z,91.90
2023-03-28T21:58:33.426Z,92.20
2023-03-28T22:01:02.829Z,92.60
2023-03-28T22:03:31.457Z,92.70
2023-03-28T22:05:58.687Z,92.80
2023-03-28T22:08:26.275Z,93.30
2023-03-28T22:10:57.337Z,93.40
2023-03-28T22:13:24.705Z,93.90
2023-03-28T22:15:52.952Z,94.00
2023-03-28T22:18:25.610Z,93.70
2023-03-28T22:20:53.913Z,93.70
2023-03-28T22:23:22.728Z,93.70
2023-03-28T22:25:50.507Z,93.60
2023-03-28T22:28:18.975Z,94.40
2023-03-28T22:30:46.071Z,95.00
2023-03-28T22:33:13.410Z,95.80
2023-03-28T22:35:40.771Z,95.90
2023-03-28T22:38:07.932Z,95.90
2023-03-28T22:40:35.013Z,95.30
2023-03-28T22:43:03.143Z,96.10
2023-03-28T22:45:30.040Z,95.90
2023-03-28T22:48:04.667Z,96.50
2023-03-28T22:50:33.713Z,96.60
2023-03-28T22:53:02.880Z,96.70
2023-03-28T22:55:29.724Z,96.70
2023-03-28T22:57:57.114Z,97.80
2023-03-28T23:00:24.132Z,97.00
2023-03-28T23:02:52.322Z,97.20
2023-03-28T23:05:22.947Z,98.60
2023-03-28T23:07:50.974Z,99.20
2023-03-28T23:10:20.104Z,99.90
2023-03-28T23:12:47.774Z,99.90
2023-03-28T23:15:15.063Z,99.90
2023-03-28T23:17:42.902Z,99.90
2023-03-28T23:20:13.018Z,99.90
2023-03-28T23:22:41.584Z,99.90
2023-03-28T23:25:11.023Z,99.90
2023-03-28T23:27:38.178Z,99.90
2023-03-28T23:30:06.363Z,99.90
2023-03-28T23:32:33.586Z,99.90
2023-03-28T23:35:00.710Z,99.90
2023-03-28T23:37:28.142Z,99.90
2023-03-28T23:39:56.699Z,99.90
2023-03-28T23:42:25.486Z,99.90
2023-03-28T23:44:53.152Z,99.90
2023-03-28T23:47:20.536Z,99.90
2023-03-28T23:49:48.768Z,99.90
2023-03-28T23:52:16.647Z,99.90
2023-03-28T23:54:44.323Z,99.90
2023-03-28T23:57:11.980Z,99.90
2023-03-28T23:59:39.190Z,99.90
